Time;durP1;ratioP1;P1;durP2;ratioP2;P2;SDS_P1;SDS_P2;PMS_P1;PMS_P2;Temp;Humidity;BMP_temperature;BMP_pressure;BME280_temperature;BME280_humidity;BME280_pressure;Samples;Min_cycle;Max_cycle;Signal;HPM_P1;HPM_P2
2022/07/09 00:00:06;;;;;;;9.18;4.25;;;15.70;99.90;;;;;;5079144;28;20048;-79
2022/07/09 00:02:31;;;;;;;5.13;3.40;;;15.70;99.90;;;;;;5080259;28;20025;-79
2022/07/09 00:04:57;;;;;;;5.88;3.55;;;15.70;99.90;;;;;;5098109;28;20142;-78
2022/07/09 00:07:22;;;;;;;8.32;3.60;;;15.60;99.90;;;;;;5096269;28;20385;-78
2022/07/09 00:09:48;;;;;;;6.78;3.63;;;15.70;99.90;;;;;;5095819;28;20024;-76
2022/07/09 00:12:13;;;;;;;8.02;2.80;;;15.60;99.90;;;;;;5093589;28;20052;-76
2022/07/09 00:14:39;;;;;;;9.45;3.17;;;15.60;99.90;;;;;;5094298;28;20065;-76
2022/07/09 00:17:05;;;;;;;5.40;2.95;;;15.60;99.90;;;;;;5093815;28;20016;-76
2022/07/09 00:19:30;;;;;;;7.53;3.22;;;15.50;99.90;;;;;;5093287;28;20024;-76
2022/07/09 00:21:56;;;;;;;10.27;4.30;;;15.50;99.90;;;;;;5076000;28;20020;-76
2022/07/09 00:24:21;;;;;;;5.75;3.83;;;15.50;99.90;;;;;;5093626;28;20052;-76
2022/07/09 00:26:47;;;;;;;7.90;3.80;;;15.90;99.90;;;;;;5093212;28;20036;-76
2022/07/09 00:29:12;;;;;;;8.98;3.35;;;15.50;99.90;;;;;;5075091;28;20027;-76
2022/07/09 00:31:38;;;;;;;8.02;3.13;;;15.50;99.90;;;;;;5093522;28;20020;-76
2022/07/09 00:34:04;;;;;;;8.93;3.70;;;15.50;99.90;;;;;;5093090;28;20024;-76
2022/07/09 00:36:29;;;;;;;6.28;3.30;;;15.50;99.90;;;;;;5093381;28;20020;-76
2022/07/09 00:38:55;;;;;;;9.02;4.03;;;15.40;99.90;;;;;;5093648;28;20081;-76
2022/07/09 00:41:21;;;;;;;7.15;3.60;;;15.40;99.90;;;;;;5075250;28;20393;-76
2022/07/09 00:43:48;;;;;;;6.80;3.20;;;15.80;99.90;;;;;;5075632;28;20066;-76
2022/07/09 00:46:14;;;;;;;10.10;4.15;;;15.30;99.90;;;;;;5077120;28;20046;-76
2022/07/09 00:48:40;;;;;;;7.55;3.80;;;15.30;99.90;;;;;;5096949;28;20465;-76
2022/07/09 00:51:07;;;;;;;6.05;3.45;;;15.30;99.90;;;;;;5097329;28;20024;-76
2022/07/09 00:53:33;;;;;;;5.65;3.08;;;15.60;99.90;;;;;;5097319;28;20032;-76
2022/07/09 00:56:00;;;;;;;7.10;2.97;;;15.30;99.90;;;;;;5097681;28;20517;-76
2022/07/09 00:58:27;;;;;;;8.70;3.55;;;15.30;99.90;;;;;;5097037;28;20020;-76
2022/07/09 01:00:53;;;;;;;7.50;3.13;;;15.30;99.90;;;;;;5097078;28;20024;-77
2022/07/09 01:03:19;;;;;;;4.90;2.65;;;15.30;99.90;;;;;;5078025;28;20024;-76
2022/07/09 01:05:45;;;;;;;5.85;3.38;;;15.20;99.90;;;;;;5097208;28;20020;-76
2022/07/09 01:08:10;;;;;;;5.55;3.22;;;15.20;99.90;;;;;;5078745;28;20020;-75
2022/07/09 01:10:37;;;;;;;7.38;3.90;;;15.20;99.90;;;;;;5078583;28;20020;-75
2022/07/09 01:13:04;;;;;;;9.65;4.63;;;15.10;99.90;;;;;;5079209;28;20019;-74
2022/07/09 01:15:30;;;;;;;11.40;4.63;;;15.10;99.90;;;;;;5097881;28;20468;-74
2022/07/09 01:17:57;;;;;;;9.30;4.53;;;15.10;99.90;;;;;;5098229;28;20017;-74
2022/07/09 01:20:30;;;;;;;7.95;4.20;;;15.10;99.90;;;;;;5079669;28;20039;-74
2022/07/09 01:22:57;;;;;;;8.65;4.53;;;15.10;99.90;;;;;;5098137;28;20354;-74
2022/07/09 01:25:33;;;;;;;7.40;4.05;;;15.10;99.90;;;;;;5097871;28;20023;-74
2022/07/09 01:27:59;;;;;;;10.25;4.30;;;15.10;99.90;;;;;;5097852;28;20206;-75
2022/07/09 01:30:26;;;;;;;14.50;3.97;;;15.10;99.90;;;;;;5097389;28;20082;-74
2022/07/09 01:32:52;;;;;;;12.52;4.25;;;15.10;99.90;;;;;;5079023;28;20442;-75
2022/07/09 01:35:19;;;;;;;7.93;4.78;;;15.00;99.90;;;;;;5097322;28;20094;-74
2022/07/09 01:37:45;;;;;;;8.98;5.40;;;;;;;;;;5097087;28;20485;-74
2022/07/09 01:40:11;;;;;;;11.15;4.88;;;15.00;99.90;;;;;;5096911;28;20111;-74
2022/07/09 01:42:37;;;;;;;15.55;5.65;;;15.00;99.90;;;;;;5096791;28;20030;-74
2022/07/09 01:45:03;;;;;;;10.63;4.75;;;14.90;99.90;;;;;;5078617;28;20028;-75
2022/07/09 01:47:29;;;;;;;8.52;4.70;;;14.90;99.90;;;;;;5096931;28;20095;-74
2022/07/09 01:49:54;;;;;;;11.75;5.95;;;14.90;99.90;;;;;;5078409;28;20111;-74
2022/07/09 01:52:20;;;;;;;12.57;5.57;;;14.90;99.90;;;;;;5096708;28;20024;-74
2022/07/09 01:54:46;;;;;;;12.93;6.65;;;14.90;99.90;;;;;;5096293;28;20016;-74
2022/07/09 01:57:11;;;;;;;14.80;6.88;;;14.90;99.90;;;;;;5095510;28;20035;-74
2022/07/09 01:59:37;;;;;;;15.73;6.47;;;14.90;99.90;;;;;;5095821;28;20020;-74
2022/07/09 02:02:02;;;;;;;15.00;5.88;;;14.90;99.90;;;;;;5077519;28;20024;-74
2022/07/09 02:04:28;;;;;;;11.93;5.97;;;14.90;99.90;;;;;;5077633;28;20066;-74
2022/07/09 02:06:54;;;;;;;13.13;6.25;;;14.90;99.90;;;;;;5096487;28;20042;-74
2022/07/09 02:09:19;;;;;;;15.00;7.10;;;14.90;99.90;;;;;;5095604;28;20027;-74
2022/07/09 02:11:46;;;;;;;16.05;7.50;;;14.90;99.90;;;;;;5095995;28;20019;-74
2022/07/09 02:14:12;;;;;;;17.90;6.43;;;14.80;99.90;;;;;;5096197;28;20511;-74
2022/07/09 02:16:37;;;;;;;12.98;7.00;;;14.80;99.90;;;;;;5077989;28;20012;-74
2022/07/09 02:19:03;;;;;;;12.90;5.82;;;14.80;99.90;;;;;;5095704;28;20170;-74
2022/07/09 02:21:28;;;;;;;14.65;7.15;;;15.80;99.90;;;;;;5095898;28;20027;-75
2022/07/09 02:23:58;;;;;;;14.90;7.70;;;14.80;99.90;;;;;;5096130;28;20023;-74
2022/07/09 02:26:29;;;;;;;13.50;7.70;;;14.80;99.90;;;;;;5078187;28;20036;-74
2022/07/09 02:28:58;;;;;;;15.00;6.15;;;14.80;99.90;;;;;;5078103;28;20395;-74
2022/07/09 02:31:24;;;;;;;15.50;7.22;;;15.40;99.90;;;;;;5096149;28;20021;-75
2022/07/09 02:33:50;;;;;;;18.50;7.47;;;14.80;99.90;;;;;;5095385;28;20027;-74
2022/07/09 02:36:15;;;;;;;15.90;7.38;;;14.80;99.90;;;;;;5095260;28;20056;-74
2022/07/09 02:38:41;;;;;;;14.65;6.60;;;14.90;99.90;;;;;;5095724;28;20028;-74
2022/07/09 02:41:07;;;;;;;13.63;7.78;;;14.80;99.90;;;;;;5095653;28;20024;-74
2022/07/09 02:43:33;;;;;;;13.13;6.75;;;14.90;99.90;;;;;;5095437;28;20111;-74
2022/07/09 02:45:58;;;;;;;16.67;6.85;;;15.00;99.90;;;;;;5076888;28;20540;-73
2022/07/09 02:48:27;;;;;;;21.60;8.43;;;15.00;99.90;;;;;;5095625;28;20362;-74
2022/07/09 02:50:53;;;;;;;17.30;7.35;;;15.10;99.90;;;;;;5076835;28;20121;-74
2022/07/09 02:53:20;;;;;;;14.75;7.57;;;15.20;99.90;;;;;;5095422;28;20031;-74
2022/07/09 02:55:46;;;;;;;15.63;7.35;;;15.20;99.90;;;;;;5095576;28;20027;-74
2022/07/09 02:58:12;;;;;;;20.63;9.00;;;15.20;99.90;;;;;;5096443;28;20034;-74
2022/07/09 03:00:42;;;;;;;20.45;9.57;;;15.30;99.90;;;;;;5096050;28;20021;-74
2022/07/09 03:03:09;;;;;;;17.90;8.82;;;15.20;99.90;;;;;;5095071;28;20028;-74
2022/07/09 03:05:35;;;;;;;17.30;9.38;;;15.20;99.90;;;;;;5095374;28;20020;-74
2022/07/09 03:08:01;;;;;;;21.85;10.20;;;15.20;99.90;;;;;;5095099;28;20438;-74
2022/07/09 03:10:27;;;;;;;18.38;9.02;;;15.30;99.90;;;;;;5093721;28;20032;-74
2022/07/09 03:12:52;;;;;;;17.23;8.88;;;15.20;99.90;;;;;;5094725;28;20012;-74
2022/07/09 03:15:18;;;;;;;19.42;9.57;;;15.30;99.90;;;;;;5094771;28;20073;-73
2022/07/09 03:17:44;;;;;;;24.17;9.43;;;15.20;99.90;;;;;;5094666;28;20020;-74
2022/07/09 03:20:10;;;;;;;16.77;9.32;;;15.20;99.90;;;;;;5094602;28;20020;-74
2022/07/09 03:22:37;;;;;;;18.77;9.68;;;15.20;99.90;;;;;;5076196;28;20118;-75
2022/07/09 03:25:07;;;;;;;18.00;8.32;;;15.20;99.90;;;;;;5094642;28;20024;-74
2022/07/09 03:27:34;;;;;;;20.05;9.05;;;15.20;99.90;;;;;;5094111;28;20149;-75
2022/07/09 03:30:01;;;;;;;24.77;9.82;;;15.20;99.90;;;;;;5094004;28;20052;-74
2022/07/09 03:32:27;;;;;;;19.05;9.55;;;15.30;99.90;;;;;;5094063;28;20028;-74
2022/07/09 03:34:52;;;;;;;21.30;10.13;;;15.30;99.90;;;;;;5094128;28;20043;-74
2022/07/09 03:37:19;;;;;;;20.45;10.73;;;15.30;99.90;;;;;;5094046;28;20111;-74
2022/07/09 03:39:45;;;;;;;23.13;10.57;;;15.30;99.90;;;;;;5095095;28;20032;-73
2022/07/09 03:42:11;;;;;;;24.67;10.27;;;15.30;99.90;;;;;;5093952;28;20032;-73
2022/07/09 03:44:37;;;;;;;20.58;10.52;;;15.20;99.90;;;;;;5075787;28;20024;-73
2022/07/09 03:47:07;;;;;;;19.67;10.40;;;15.10;99.90;;;;;;5093930;28;20036;-73
2022/07/09 03:49:33;;;;;;;23.30;10.88;;;15.20;99.90;;;;;;5093735;28;20059;-73
2022/07/09 03:51:59;;;;;;;19.02;9.73;;;15.20;99.90;;;;;;5093820;28;20032;-73
2022/07/09 03:54:25;;;;;;;22.95;10.52;;;15.20;99.90;;;;;;5093791;28;20412;-73
2022/07/09 03:56:51;;;;;;;19.15;10.70;;;15.20;99.90;;;;;;5075550;28;20020;-73
2022/07/09 03:59:17;;;;;;;20.85;9.48;;;15.30;99.90;;;;;;5093613;28;20028;-73
2022/07/09 04:01:43;;;;;;;19.35;9.10;;;15.30;99.90;;;;;;5075555;28;20024;-73
2022/07/09 04:04:08;;;;;;;23.13;9.80;;;15.40;99.90;;;;;;5093478;28;20043;-73
2022/07/09 04:06:34;;;;;;;19.98;9.80;;;15.40;99.90;;;;;;5093664;28;20032;-73
2022/07/09 04:09:06;;;;;;;25.77;11.48;;;15.50;99.90;;;;;;5093435;28;20119;-73
2022/07/09 04:11:33;;;;;;;20.08;9.85;;;15.50;99.90;;;;;;5094006;28;20017;-73
2022/07/09 04:14:01;;;;;;;19.13;9.95;;;15.60;99.90;;;;;;5093500;28;20074;-73
2022/07/09 04:16:28;;;;;;;;;;;15.60;99.90;;;;;;5094492;28;20028;-73
2022/07/09 04:18:54;;;;;;;23.90;11.45;;;15.70;99.90;;;;;;5075932;28;20417;-73
2022/07/09 04:21:22;;;;;;;21.58;10.38;;;15.80;99.90;;;;;;5092951;28;20103;-73
2022/07/09 04:23:49;;;;;;;27.02;11.90;;;15.80;99.90;;;;;;5093328;28;20028;-73
2022/07/09 04:26:15;;;;;;;25.77;12.85;;;15.90;99.90;;;;;;5093303;28;20118;-73
2022/07/09 04:28:40;;;;;;;27.98;12.30;;;15.90;99.90;;;;;;5093236;28;20028;-73
2022/07/09 04:31:06;;;;;;;24.45;12.73;;;16.00;99.90;;;;;;5075336;28;20023;-73
2022/07/09 04:33:32;;;;;;;27.65;13.05;;;16.00;99.90;;;;;;5093289;28;20107;-73
2022/07/09 04:35:57;;;;;;;24.40;12.48;;;16.10;99.90;;;;;;5075417;28;20028;-73
2022/07/09 04:38:24;;;;;;;27.08;12.52;;;16.10;99.90;;;;;;5093084;28;20027;-73
2022/07/09 04:40:50;;;;;;;22.27;11.35;;;16.20;99.90;;;;;;5093362;28;20051;-73
2022/07/09 04:43:16;;;;;;;27.55;13.43;;;16.20;99.90;;;;;;5093260;28;20024;-73
2022/07/09 04:45:42;;;;;;;26.45;12.35;;;16.30;99.90;;;;;;5093785;28;20020;-73
2022/07/09 04:48:07;;;;;;;24.08;11.50;;;16.30;99.90;;;;;;5093421;28;20136;-73
2022/07/09 04:50:33;;;;;;;23.38;10.77;;;16.40;99.90;;;;;;5093196;28;20031;-73
2022/07/09 04:52:58;;;;;;;24.33;11.35;;;16.40;99.90;;;;;;5093021;28;20031;-73
2022/07/09 04:55:24;;;;;;;25.05;12.68;;;16.50;99.90;;;;;;5093215;28;20046;-73
2022/07/09 04:57:50;;;;;;;28.83;12.55;;;16.60;99.90;;;;;;5093092;28;20020;-73
2022/07/09 05:00:16;;;;;;;23.42;11.82;;;16.60;99.90;;;;;;5075110;28;20077;-73
2022/07/09 05:02:43;;;;;;;24.67;11.98;;;16.70;99.90;;;;;;5093041;28;20103;-73
2022/07/09 05:05:10;;;;;;;23.83;11.20;;;16.80;99.90;;;;;;5092957;28;20481;-73
2022/07/09 05:07:35;;;;;;;22.73;10.40;;;16.90;99.90;;;;;;5092907;28;20106;-73
2022/07/09 05:10:02;;;;;;;23.33;11.43;;;17.00;99.90;;;;;;5092925;28;20115;-73
2022/07/09 05:12:28;;;;;;;20.80;10.68;;;17.10;99.90;;;;;;5092871;28;20020;-73
2022/07/09 05:14:55;;;;;;;18.35;9.80;;;17.20;99.90;;;;;;5092981;28;20031;-73
2022/07/09 05:17:21;;;;;;;20.55;10.23;;;17.20;99.90;;;;;;5093024;28;20020;-73
2022/07/09 05:19:46;;;;;;;18.67;9.50;;;17.30;99.90;;;;;;5092784;28;20538;-73
2022/07/09 05:22:12;;;;;;;17.88;9.98;;;17.40;99.90;;;;;;5092928;28;20035;-73
2022/07/09 05:24:37;;;;;;;17.88;9.43;;;17.40;99.90;;;;;;5074786;28;20020;-73
2022/07/09 05:27:03;;;;;;;16.70;8.98;;;17.50;99.90;;;;;;5074998;28;20081;-73
2022/07/09 05:29:29;;;;;;;18.30;8.93;;;17.50;99.90;;;;;;5092897;28;20493;-73
2022/07/09 05:31:57;;;;;;;17.35;8.52;;;17.60;99.90;;;;;;5093299;28;20115;-73
2022/07/09 05:34:23;;;;;;;22.75;10.10;;;17.60;99.90;;;;;;5096445;28;20012;-74
2022/07/09 05:36:48;;;;;;;17.42;8.20;;;17.70;99.90;;;;;;5078061;28;20537;-74
2022/07/09 05:39:14;;;;;;;17.40;8.40;;;17.70;99.90;;;;;;5096141;28;20032;-74
2022/07/09 05:41:40;;;;;;;17.65;8.45;;;17.80;99.90;;;;;;5096161;28;20050;-74
2022/07/09 05:44:06;;;;;;;13.18;7.63;;;18.00;99.90;;;;;;5096140;28;20072;-73
2022/07/09 05:46:31;;;;;;;16.33;7.57;;;18.10;99.90;;;;;;5096115;28;20031;-73
2022/07/09 05:48:57;;;;;;;16.98;7.72;;;18.20;99.90;;;;;;5096273;28;20031;-73
2022/07/09 05:51:22;;;;;;;12.50;7.22;;;18.30;99.90;;;;;;5096493;28;20020;-73
2022/07/09 05:53:48;;;;;;;15.35;7.22;;;18.40;99.90;;;;;;5095945;28;20377;-73
2022/07/09 05:56:14;;;;;;;13.27;6.80;;;18.50;99.90;;;;;;5096094;28;20027;-73
2022/07/09 05:58:39;;;;;;;11.80;6.95;;;18.50;99.90;;;;;;5096395;28;20091;-73
2022/07/09 06:01:08;;;;;;;14.88;7.13;;;18.50;99.90;;;;;;5095807;28;20013;-73
2022/07/09 06:03:34;;;;;;;15.85;7.00;;;18.50;99.90;;;;;;5096177;28;20039;-73
2022/07/09 06:06:00;;;;;;;12.30;6.65;;;18.50;99.90;;;;;;5077557;28;20028;-73
2022/07/09 06:08:25;;;;;;;15.57;7.60;;;18.60;99.90;;;;;;5095577;28;20072;-73
2022/07/09 06:10:51;;;;;;;12.77;6.10;;;18.70;99.90;;;;;;5095944;28;20016;-73
2022/07/09 06:13:17;;;;;;;12.68;6.30;;;19.70;99.90;;;;;;5095690;28;20024;-73
2022/07/09 06:15:43;;;;;;;10.48;5.78;;;18.80;99.90;;;;;;5077439;28;20043;-73
2022/07/09 06:18:09;;;;;;;11.48;5.90;;;18.80;99.90;;;;;;5095476;28;20117;-73
2022/07/09 06:20:34;;;;;;;9.30;5.05;;;18.90;99.90;;;;;;5077876;28;20020;-73
2022/07/09 06:23:00;;;;;;;7.40;4.82;;;18.90;99.90;;;;;;5095353;28;20020;-73
2022/07/09 06:25:26;;;;;;;11.48;4.95;;;19.00;99.90;;;;;;5095314;28;20027;-73
2022/07/09 06:27:51;;;;;;;9.93;4.72;;;19.10;99.90;;;;;;5095719;28;20059;-73
2022/07/09 06:30:17;;;;;;;6.90;4.28;;;19.20;99.90;;;;;;5095126;28;20020;-73
2022/07/09 06:32:42;;;;;;;10.48;4.13;;;19.20;99.90;;;;;;5077106;28;20024;-73
2022/07/09 06:35:08;;;;;;;6.40;3.85;;;19.20;99.90;;;;;;5095400;28;20048;-74
2022/07/09 06:37:34;;;;;;;7.43;3.65;;;19.30;99.90;;;;;;5095033;28;20038;-73
2022/07/09 06:40:00;;;;;;;6.97;3.45;;;19.30;99.90;;;;;;5095095;28;20103;-73
2022/07/09 06:42:26;;;;;;;4.75;2.88;;;20.70;99.90;;;;;;5095071;28;20076;-74
2022/07/09 06:44:52;;;;;;;3.90;2.53;;;19.40;99.90;;;;;;5076686;28;20023;-74
2022/07/09 06:47:18;;;;;;;7.55;2.10;;;19.50;99.90;;;;;;5094811;28;20028;-74
2022/07/09 06:49:46;;;;;;;5.95;2.72;;;19.50;99.90;;;;;;5094749;28;20020;-74
2022/07/09 06:52:12;;;;;;;4.70;2.08;;;19.60;99.90;;;;;;5095061;28;20095;-75
2022/07/09 06:54:38;;;;;;;5.05;2.80;;;19.60;99.90;;;;;;5076919;28;20065;-74
2022/07/09 06:57:09;;;;;;;7.25;3.13;;;19.60;99.90;;;;;;5076863;28;20024;-74
2022/07/09 06:59:35;;;;;;;7.05;3.63;;;19.70;99.90;;;;;;5094880;28;20024;-74
2022/07/09 07:02:01;;;;;;;4.75;2.67;;;19.80;99.90;;;;;;5099038;23;20038;-74
2022/07/09 07:04:26;;;;;;;5.93;2.88;;;19.90;99.90;;;;;;5074499;28;20041;-74
2022/07/09 07:06:52;;;;;;;5.40;3.65;;;20.10;99.90;;;;;;5056481;28;20024;-74
2022/07/09 07:09:20;;;;;;;4.55;2.60;;;20.20;99.90;;;;;;5086725;28;20020;-74
2022/07/09 07:11:47;;;;;;;5.50;3.35;;;20.30;99.90;;;;;;5094673;28;20020;-74
2022/07/09 07:14:13;;;;;;;5.00;2.88;;;20.50;99.90;;;;;;5094796;28;20024;-74
2022/07/09 07:16:38;;;;;;;5.32;2.65;;;20.70;99.90;;;;;;5094521;28;20028;-74
2022/07/09 07:19:04;;;;;;;3.50;2.80;;;20.90;99.90;;;;;;5094001;28;20016;-76
2022/07/09 07:21:29;;;;;;;7.15;3.80;;;21.20;99.90;;;;;;5094312;28;20472;-76
2022/07/09 07:23:55;;;;;;;10.80;4.47;;;21.40;99.90;;;;;;5076219;28;20110;-76
2022/07/09 07:26:20;;;;;;;7.13;3.88;;;21.50;99.90;;;;;;5075866;28;20055;-76
2022/07/09 07:28:46;;;;;;;7.03;4.57;;;21.70;99.90;;;;;;5094235;28;20020;-77
2022/07/09 07:31:12;;;;;;;5.18;3.80;;;22.10;99.90;;;;;;5075892;28;20012;-76
2022/07/09 07:33:38;;;;;;;10.75;4.72;;;21.70;99.90;;;;;;5094183;28;20031;-76
2022/07/09 07:36:04;;;;;;;10.68;4.88;;;21.70;99.90;;;;;;5075872;28;20119;-76
2022/07/09 07:38:30;;;;;;;9.48;5.35;;;21.60;99.90;;;;;;5093520;28;20123;-76
2022/07/09 07:40:55;;;;;;;10.23;4.88;;;21.50;99.90;;;;;;5093870;28;20044;-76
2022/07/09 07:43:21;;;;;;;10.57;4.72;;;21.40;99.90;;;;;;5094560;28;20380;-76
2022/07/09 07:45:46;;;;;;;5.93;4.00;;;21.30;99.90;;;;;;5093902;28;20022;-76
2022/07/09 07:48:13;;;;;;;6.57;4.35;;;21.70;99.90;;;;;;5093937;28;20066;-76
2022/07/09 07:50:38;;;;;;;6.15;4.28;;;21.70;99.90;;;;;;5075225;28;20020;-76
2022/07/09 07:53:07;;;;;;;9.10;5.40;;;21.30;99.90;;;;;;5075385;28;20026;-77
2022/07/09 07:55:33;;;;;;;7.53;4.78;;;21.30;99.90;;;;;;5093436;28;20424;-76
2022/07/09 07:57:59;;;;;;;6.78;4.05;;;21.40;99.90;;;;;;5093647;28;20422;-77
2022/07/09 08:00:24;;;;;;;8.23;4.68;;;21.50;99.90;;;;;;5093252;28;20036;-77
2022/07/09 08:02:50;;;;;;;9.18;4.32;;;21.60;99.90;;;;;;5075467;28;20042;-76
2022/07/09 08:05:16;;;;;;;7.75;4.70;;;21.70;99.90;;;;;;5075234;28;20028;-76
2022/07/09 08:07:42;;;;;;;6.10;3.45;;;21.70;99.90;;;;;;5093667;28;20028;-76
2022/07/09 08:10:08;;;;;;;6.88;3.28;;;21.70;99.90;;;;;;5093705;28;20099;-76
2022/07/09 08:12:33;;;;;;;4.40;2.70;;;21.80;99.90;;;;;;5093417;28;20024;-76
2022/07/09 08:14:59;;;;;;;1.90;0.75;;;21.80;99.90;;;;;;5093558;28;20020;-76
2022/07/09 08:17:25;;;;;;;3.42;0.50;;;21.80;99.90;;;;;;5075320;28;20020;-76
2022/07/09 08:19:51;;;;;;;2.75;0.20;;;21.70;99.90;;;;;;5093488;28;20016;-77
2022/07/09 08:22:16;;;;;;;0.52;0.00;;;21.60;99.90;;;;;;5093941;28;20028;-77
2022/07/09 08:24:42;;;;;;;0.22;0.00;;;21.50;99.90;;;;;;5093398;28;20053;-77
2022/07/09 08:27:08;;;;;;;0.17;0.00;;;21.50;99.90;;;;;;5075197;28;20055;-76
2022/07/09 08:29:33;;;;;;;0.22;0.00;;;21.60;99.90;;;;;;5093342;28;20039;-77
2022/07/09 08:31:59;;;;;;;0.93;0.17;;;21.70;99.90;;;;;;5093359;28;20024;-77
2022/07/09 08:34:25;;;;;;;1.35;0.00;;;21.80;99.90;;;;;;5074699;28;20447;-76
2022/07/09 08:36:50;;;;;;;1.05;0.00;;;21.90;99.90;;;;;;5093179;28;20038;-76
2022/07/09 08:39:16;;;;;;;0.65;0.00;;;22.00;99.90;;;;;;5093258;28;20496;-76
2022/07/09 08:41:43;;;;;;;0.25;0.00;;;22.20;99.90;;;;;;5093279;28;20453;-77
2022/07/09 08:44:12;;;;;;;1.75;0.10;;;22.30;99.90;;;;;;5092757;28;20415;-77
2022/07/09 08:46:38;;;;;;;;;;;22.30;99.90;;;;;;5093541;28;20028;-77
2022/07/09 08:49:05;;;;;;;1.17;0.00;;;22.30;99.90;;;;;;5074507;28;19908;-77
2022/07/09 08:51:32;;;;;;;0.40;0.00;;;22.20;99.90;;;;;;5093036;28;20031;-76
2022/07/09 08:53:58;;;;;;;0.95;0.20;;;22.30;99.90;;;;;;5093133;28;20451;-76
2022/07/09 08:56:24;;;;;;;3.03;0.40;;;22.50;99.90;;;;;;5093094;28;20099;-76
2022/07/09 08:58:49;;;;;;;0.47;0.10;;;22.70;99.90;;;;;;5074587;28;20465;-76
2022/07/09 09:01:19;;;;;;;0.65;0.00;;;22.80;99.90;;;;;;5093196;28;20027;-76
2022/07/09 09:03:45;;;;;;;0.85;0.15;;;22.80;99.90;;;;;;5093355;28;20028;-76
2022/07/09 09:06:12;;;;;;;0.20;0.00;;;22.80;99.90;;;;;;5093102;28;20016;-76
2022/07/09 09:08:39;;;;;;;1.00;0.00;;;22.80;99.90;;;;;;5095061;28;20020;-76
2022/07/09 09:11:06;;;;;;;0.00;0.00;;;22.70;99.90;;;;;;5078675;28;20024;-76
2022/07/09 09:13:45;;;;;;;0.00;0.00;;;22.80;99.90;;;;;;5097958;28;20415;-76
2022/07/09 09:16:13;;;;;;;0.10;0.00;;;22.70;99.90;;;;;;5097072;28;20105;-76
2022/07/09 09:18:44;;;;;;;0.10;0.00;;;22.80;99.90;;;;;;5096375;28;20020;-76
2022/07/09 09:21:11;;;;;;;0.00;0.00;;;22.90;99.90;;;;;;5096913;28;20099;-77
2022/07/09 09:23:53;;;;;;;0.25;0.00;;;23.20;99.90;;;;;;5078350;28;20027;-76
2022/07/09 09:26:22;;;;;;;0.40;0.00;;;23.60;99.90;;;;;;5096330;28;20008;-76
2022/07/09 09:28:54;;;;;;;1.58;0.00;;;23.80;99.90;;;;;;5096157;28;20035;-77
2022/07/09 09:31:23;;;;;;;0.00;0.00;;;24.00;99.90;;;;;;5096924;28;20012;-76
2022/07/09 09:33:50;;;;;;;1.17;0.00;;;24.10;99.90;;;;;;5096714;28;20031;-77
2022/07/09 09:36:33;;;;;;;0.00;0.00;;;24.20;99.90;;;;;;5078116;28;20028;-77
2022/07/09 09:39:15;;;;;;;0.77;0.00;;;24.50;99.90;;;;;;5078491;28;20024;-76
2022/07/09 09:41:46;;;;;;;0.20;0.00;;;24.60;99.90;;;;;;5092379;28;20028;-75
2022/07/09 09:44:25;;;;;;;1.65;0.20;;;24.60;99.90;;;;;;5078044;28;20101;-75
2022/07/09 09:46:52;;;;;;;0.90;0.00;;;24.30;99.90;;;;;;5096178;28;20031;-75
2022/07/09 09:49:18;;;;;;;0.30;0.00;;;24.00;99.90;;;;;;5095982;28;20043;-76
2022/07/09 09:51:49;;;;;;;0.77;0.00;;;23.90;99.90;;;;;;5077796;28;20389;-75
2022/07/09 09:54:16;;;;;;;0.70;0.00;;;23.90;99.90;;;;;;5095981;28;20032;-74
2022/07/09 09:56:42;;;;;;;1.55;0.00;;;24.00;99.90;;;;;;5096019;28;20077;-75
2022/07/09 09:59:09;;;;;;;0.10;0.00;;;24.00;99.90;;;;;;5096228;28;20431;-74
2022/07/09 10:01:35;;;;;;;0.00;0.00;;;23.90;99.90;;;;;;5077141;28;20059;-74
2022/07/09 10:04:01;;;;;;;0.88;0.00;;;23.80;99.90;;;;;;5077601;28;20405;-74
2022/07/09 10:06:27;;;;;;;2.53;0.00;;;23.60;99.90;;;;;;5095982;28;20380;-74
2022/07/09 10:08:56;;;;;;;0.90;0.00;;;23.30;99.90;;;;;;5095661;28;20107;-73
2022/07/09 10:11:22;;;;;;;0.20;0.00;;;23.20;99.90;;;;;;5095618;28;20393;-73
2022/07/09 10:13:52;;;;;;;0.43;0.00;;;23.20;99.90;;;;;;5095629;28;20023;-74
2022/07/09 10:16:18;;;;;;;0.75;0.20;;;23.10;99.90;;;;;;5095825;28;20473;-75
2022/07/09 10:18:53;;;;;;;0.17;0.10;;;23.10;99.90;;;;;;5095101;28;20049;-76
2022/07/09 10:21:30;;;;;;;0.10;0.00;;;23.00;99.90;;;;;;5095581;28;20028;-74
2022/07/09 10:23:56;;;;;;;2.00;0.20;;;23.00;99.90;;;;;;5095499;28;20047;-75
2022/07/09 10:26:21;;;;;;;0.60;0.00;;;23.00;99.90;;;;;;5094897;28;20449;-75
2022/07/09 10:28:47;;;;;;;0.63;0.00;;;23.10;99.90;;;;;;5095471;28;20047;-75
2022/07/09 10:31:20;;;;;;;0.43;0.00;;;23.20;99.90;;;;;;5095569;28;20044;-75
2022/07/09 10:34:00;;;;;;;2.60;0.00;;;23.40;99.90;;;;;;5095050;28;20028;-75
2022/07/09 10:36:26;;;;;;;0.32;0.00;;;23.50;99.90;;;;;;5095382;28;20031;-75
2022/07/09 10:38:58;;;;;;;0.45;0.28;;;23.70;99.90;;;;;;5095310;28;20024;-75
2022/07/09 10:41:24;;;;;;;1.92;0.00;;;23.80;99.90;;;;;;5095428;28;20091;-75
2022/07/09 10:43:51;;;;;;;0.45;0.00;;;23.70;99.90;;;;;;5095003;28;20097;-75
2022/07/09 10:46:17;;;;;;;0.38;0.00;;;23.70;99.90;;;;;;5076979;28;20020;-75
2022/07/09 10:48:45;;;;;;;0.55;0.00;;;23.70;99.90;;;;;;5094865;28;20107;-75
2022/07/09 10:51:19;;;;;;;1.52;0.08;;;23.90;99.90;;;;;;5095008;28;20423;-75
2022/07/09 10:53:44;;;;;;;0.45;0.00;;;24.10;99.90;;;;;;5076822;28;20043;-75
2022/07/09 10:56:10;;;;;;;1.38;0.25;;;24.20;99.90;;;;;;5076687;28;20082;-75
2022/07/09 10:58:36;;;;;;;0.20;0.00;;;24.20;99.90;;;;;;5095251;28;20080;-75
2022/07/09 11:01:04;;;;;;;0.00;0.00;;;24.30;99.90;;;;;;5077004;28;20024;-75
2022/07/09 11:03:30;;;;;;;2.03;0.00;;;24.50;99.90;;;;;;5094673;28;20047;-75
2022/07/09 11:05:57;;;;;;;0.68;0.00;;;24.80;98.80;;;;;;5094806;28;20020;-75
2022/07/09 11:08:23;;;;;;;0.40;0.00;;;25.10;99.20;;;;;;5076608;28;20063;-75
2022/07/09 11:10:49;;;;;;;0.30;0.10;;;25.20;96.40;;;;;;5094477;28;20454;-76
2022/07/09 11:13:15;;;;;;;0.20;0.10;;;25.40;97.30;;;;;;5095267;28;20322;-76
2022/07/09 11:15:41;;;;;;;0.88;0.00;;;25.50;96.00;;;;;;5076134;28;20016;-76
2022/07/09 11:18:13;;;;;;;0.85;0.00;;;25.60;96.10;;;;;;5088178;28;20016;-76
2022/07/09 11:20:44;;;;;;;0.17;0.00;;;25.80;95.10;;;;;;5063736;28;20526;-76
2022/07/09 11:23:14;;;;;;;2.40;0.55;;;25.90;95.50;;;;;;5081834;28;20103;-75
2022/07/09 11:25:40;;;;;;;0.30;0.00;;;26.20;94.10;;;;;;5083917;28;20040;-75
2022/07/09 11:28:22;;;;;;;1.77;0.00;;;26.30;91.90;;;;;;5094405;28;20035;-76
2022/07/09 11:31:08;;;;;;;1.45;0.00;;;26.50;90.60;;;;;;5093498;28;20024;-76
2022/07/09 11:36:41;;;;;;;0.38;0.00;;;26.20;91.30;;;;;;5022510;28;20161;-75
2022/07/09 11:39:07;;;;;;;1.67;0.00;;;26.10;91.70;;;;;;5075678;28;20064;-76
2022/07/09 11:41:43;;;;;;;0.20;0.00;;;25.80;90.30;;;;;;5094398;28;20020;-75
2022/07/09 11:44:09;;;;;;;0.65;0.00;;;25.50;91.40;;;;;;5094054;28;20051;-73
2022/07/09 11:46:36;;;;;;;1.00;0.00;;;25.60;92.30;;;;;;5094007;28;20098;-75
2022/07/09 11:49:02;;;;;;;0.50;0.00;;;25.90;91.40;;;;;;5093606;28;20035;-75
2022/07/09 11:51:28;;;;;;;0.80;0.00;;;26.20;90.90;;;;;;5094408;28;20028;-75
2022/07/09 11:53:54;;;;;;;2.47;0.08;;;26.40;89.40;;;;;;5094359;28;20020;-75
2022/07/09 11:56:20;;;;;;;0.20;0.00;;;26.50;88.90;;;;;;5075882;28;20027;-75
2022/07/09 11:58:52;;;;;;;1.25;0.00;;;26.50;87.70;;;;;;5093908;28;20046;-75
2022/07/09 12:01:19;;;;;;;0.77;0.00;;;26.50;82.00;;;;;;5093569;28;20034;-75
2022/07/09 12:03:49;;;;;;;4.95;0.57;;;26.40;82.80;;;;;;5093389;28;20028;-75
2022/07/09 12:06:16;;;;;;;1.13;0.10;;;26.10;85.90;;;;;;5075330;28;20480;-76
2022/07/09 12:08:41;;;;;;;3.00;0.00;;;25.90;84.60;;;;;;5075230;28;20013;-76
2022/07/09 12:11:07;;;;;;;2.38;0.00;;;25.80;89.10;;;;;;5093498;28;20118;-76
2022/07/09 12:13:32;;;;;;;0.98;0.00;;;26.00;90.60;;;;;;5094134;28;20016;-76
2022/07/09 12:15:58;;;;;;;1.65;0.00;;;26.20;86.70;;;;;;5082651;28;20052;-76
2022/07/09 12:18:24;;;;;;;0.47;0.00;;;26.70;88.20;;;;;;5072990;28;20017;-76
2022/07/09 12:20:50;;;;;;;1.20;0.00;;;26.70;85.90;;;;;;5072150;28;20021;-76
2022/07/09 12:23:16;;;;;;;1.13;0.22;;;26.50;84.30;;;;;;5072483;28;20111;-76
2022/07/09 12:25:42;;;;;;;0.45;0.00;;;26.20;81.50;;;;;;5083917;28;20066;-75
2022/07/09 12:28:07;;;;;;;0.70;0.05;;;26.20;85.40;;;;;;5092598;28;20402;-77
2022/07/09 12:30:33;;;;;;;0.52;0.10;;;26.20;81.30;;;;;;5093325;28;20107;-77
2022/07/09 12:32:58;;;;;;;4.22;0.00;;;26.50;86.00;;;;;;5093330;28;20016;-77
2022/07/09 12:35:25;;;;;;;0.80;0.00;;;26.70;79.10;;;;;;5093104;28;20024;-77
2022/07/09 12:37:51;;;;;;;0.10;0.00;;;26.70;75.90;;;;;;5075181;28;20048;-77
2022/07/09 12:40:17;;;;;;;3.00;0.00;;;26.70;75.30;;;;;;5093283;28;20136;-77
2022/07/09 12:42:43;;;;;;;0.65;0.00;;;26.70;70.20;;;;;;5096162;28;20049;-77